sensor_id;sensor_type;location;lat;lon;timestamp;P1;durP1;ratioP1;P2;durP2;ratioP2
9473;SDS011;8865;47.636;7.692;2022-12-18T00:01:15;13.13;;;8.30;;
9473;SDS011;8865;47.636;7.692;2022-12-18T00:03:41;11.23;;;8.17;;
9473;SDS011;8865;47.636;7.692;2022-12-18T00:06:07;12.80;;;9.03;;
9473;SDS011;8865;47.636;7.692;2022-12-18T00:08:34;14.47;;;9.73;;
9473;SDS011;8865;47.636;7.692;2022-12-18T00:11:07;14.80;;;9.73;;
9473;SDS011;8865;47.636;7.692;2022-12-18T00:13:34;11.47;;;8.40;;
9473;SDS011;8865;47.636;7.692;2022-12-18T00:16:01;14.70;;;9.60;;
9473;SDS011;8865;47.636;7.692;2022-12-18T00:18:28;14.73;;;8.77;;
9473;SDS011;8865;47.636;7.692;2022-12-18T00:20:57;12.37;;;8.47;;
9473;SDS011;8865;47.636;7.692;2022-12-18T00:23:24;13.37;;;8.23;;
9473;SDS011;8865;47.636;7.692;2022-12-18T00:25:50;12.07;;;8.67;;
9473;SDS011;8865;47.636;7.692;2022-12-18T00:28:16;12.33;;;8.63;;
9473;SDS011;8865;47.636;7.692;2022-12-18T00:30:42;13.03;;;8.70;;
9473;SDS011;8865;47.636;7.692;2022-12-18T00:33:08;13.17;;;8.80;;
9473;SDS011;8865;47.636;7.692;2022-12-18T00:35:34;12.23;;;8.60;;
9473;SDS011;8865;47.636;7.692;2022-12-18T00:38:00;14.00;;;8.87;;
9473;SDS011;8865;47.636;7.692;2022-12-18T00:40:26;12.60;;;8.77;;
9473;SDS011;8865;47.636;7.692;2022-12-18T00:42:52;11.03;;;7.77;;
9473;SDS011;8865;47.636;7.692;2022-12-18T00:45:27;12.17;;;8.37;;
9473;SDS011;8865;47.636;7.692;2022-12-18T00:47:56;12.10;;;9.30;;
9473;SDS011;8865;47.636;7.692;2022-12-18T00:50:23;13.50;;;9.27;;
9473;SDS011;8865;47.636;7.692;2022-12-18T00:52:50;14.40;;;8.97;;
9473;SDS011;8865;47.636;7.692;2022-12-18T00:55:16;15.93;;;9.37;;
9473;SDS011;8865;47.636;7.692;2022-12-18T00:57:43;13.60;;;9.27;;
9473;SDS011;8865;47.636;7.692;2022-12-18T01:00:10;11.87;;;8.37;;
9473;SDS011;8865;47.636;7.692;2022-12-18T01:02:39;11.73;;;8.40;;
9473;SDS011;8865;47.636;7.692;2022-12-18T01:05:06;14.60;;;9.57;;
9473;SDS011;8865;47.636;7.692;2022-12-18T01:07:33;12.93;;;9.03;;
9473;SDS011;8865;47.636;7.692;2022-12-18T01:09:59;12.63;;;8.77;;
9473;SDS011;8865;47.636;7.692;2022-12-18T01:12:25;14.10;;;8.70;;
9473;SDS011;8865;47.636;7.692;2022-12-18T01:14:50;10.73;;;7.43;;
9473;SDS011;8865;47.636;7.692;2022-12-18T01:17:16;10.47;;;7.37;;
9473;SDS011;8865;47.636;7.692;2022-12-18T01:19:42;10.77;;;7.67;;
9473;SDS011;8865;47.636;7.692;2022-12-18T01:22:08;11.23;;;7.67;;
9473;SDS011;8865;47.636;7.692;2022-12-18T01:24:34;9.63;;;7.30;;
9473;SDS011;8865;47.636;7.692;2022-12-18T01:27:00;12.30;;;7.60;;
9473;SDS011;8865;47.636;7.692;2022-12-18T01:29:26;10.60;;;7.60;;
9473;SDS011;8865;47.636;7.692;2022-12-18T01:31:54;9.27;;;6.60;;
9473;SDS011;8865;47.636;7.692;2022-12-18T01:34:21;9.67;;;6.67;;
9473;SDS011;8865;47.636;7.692;2022-12-18T01:36:47;9.63;;;6.93;;
9473;SDS011;8865;47.636;7.692;2022-12-18T01:39:14;9.57;;;6.57;;
9473;SDS011;8865;47.636;7.692;2022-12-18T01:41:41;8.87;;;6.97;;
9473;SDS011;8865;47.636;7.692;2022-12-18T01:47:56;11.27;;;6.20;;
9473;SDS011;8865;47.636;7.692;2022-12-18T01:50:22;11.00;;;6.50;;
9473;SDS011;8865;47.636;7.692;2022-12-18T01:52:55;9.23;;;6.63;;
9473;SDS011;8865;47.636;7.692;2022-12-18T01:55:26;9.63;;;6.60;;
9473;SDS011;8865;47.636;7.692;2022-12-18T01:57:56;10.03;;;6.87;;
9473;SDS011;8865;47.636;7.692;2022-12-18T02:00:24;11.53;;;7.17;;
9473;SDS011;8865;47.636;7.692;2022-12-18T02:02:51;11.70;;;6.93;;
9473;SDS011;8865;47.636;7.692;2022-12-18T02:06:06;10.00;;;7.23;;
9473;SDS011;8865;47.636;7.692;2022-12-18T02:16:26;11.40;;;7.30;;
9473;SDS011;8865;47.636;7.692;2022-12-18T02:19:00;13.37;;;7.70;;
9473;SDS011;8865;47.636;7.692;2022-12-18T02:21:36;9.80;;;7.03;;
9473;SDS011;8865;47.636;7.692;2022-12-18T02:26:45;11.10;;;7.30;;
9473;SDS011;8865;47.636;7.692;2022-12-18T02:29:22;9.17;;;6.60;;
9473;SDS011;8865;47.636;7.692;2022-12-18T02:31:54;12.40;;;7.50;;
9473;SDS011;8865;47.636;7.692;2022-12-18T02:34:23;11.23;;;7.13;;
9473;SDS011;8865;47.636;7.692;2022-12-18T02:36:53;12.37;;;7.30;;
9473;SDS011;8865;47.636;7.692;2022-12-18T02:39:22;10.47;;;6.40;;
9473;SDS011;8865;47.636;7.692;2022-12-18T02:41:51;9.90;;;6.60;;
9473;SDS011;8865;47.636;7.692;2022-12-18T02:44:18;11.33;;;6.73;;
9473;SDS011;8865;47.636;7.692;2022-12-18T02:46:49;9.07;;;6.23;;
9473;SDS011;8865;47.636;7.692;2022-12-18T02:49:35;9.30;;;6.57;;
9473;SDS011;8865;47.636;7.692;2022-12-18T03:03:31;9.23;;;5.90;;
9473;SDS011;8865;47.636;7.692;2022-12-18T03:06:05;8.97;;;5.73;;
9473;SDS011;8865;47.636;7.692;2022-12-18T03:08:39;8.10;;;5.43;;
9473;SDS011;8865;47.636;7.692;2022-12-18T03:11:08;9.67;;;6.37;;
9473;SDS011;8865;47.636;7.692;2022-12-18T03:16:05;8.23;;;5.63;;
9473;SDS011;8865;47.636;7.692;2022-12-18T03:18:45;8.53;;;5.83;;
9473;SDS011;8865;47.636;7.692;2022-12-18T03:21:15;7.80;;;6.07;;
9473;SDS011;8865;47.636;7.692;2022-12-18T03:23:47;10.77;;;6.07;;
9473;SDS011;8865;47.636;7.692;2022-12-18T03:26:15;8.53;;;5.70;;
9473;SDS011;8865;47.636;7.692;2022-12-18T03:28:52;8.17;;;5.87;;
9473;SDS011;8865;47.636;7.692;2022-12-18T03:31:21;7.60;;;5.33;;
9473;SDS011;8865;47.636;7.692;2022-12-18T03:33:53;8.70;;;5.30;;
9473;SDS011;8865;47.636;7.692;2022-12-18T03:36:21;7.73;;;5.30;;
9473;SDS011;8865;47.636;7.692;2022-12-18T03:38:48;6.87;;;5.10;;
9473;SDS011;8865;47.636;7.692;2022-12-18T03:41:26;7.27;;;5.20;;
9473;SDS011;8865;47.636;7.692;2022-12-18T03:47:05;6.80;;;5.20;;
9473;SDS011;8865;47.636;7.692;2022-12-18T03:49:38;7.73;;;5.47;;
9473;SDS011;8865;47.636;7.692;2022-12-18T03:52:20;8.57;;;5.13;;
9473;SDS011;8865;47.636;7.692;2022-12-18T03:54:52;8.53;;;5.33;;
9473;SDS011;8865;47.636;7.692;2022-12-18T03:57:23;8.77;;;5.03;;
9473;SDS011;8865;47.636;7.692;2022-12-18T03:59:58;7.57;;;4.97;;
9473;SDS011;8865;47.636;7.692;2022-12-18T04:02:29;10.40;;;6.40;;
9473;SDS011;8865;47.636;7.692;2022-12-18T04:04:57;7.63;;;5.57;;
9473;SDS011;8865;47.636;7.692;2022-12-18T04:07:26;9.60;;;6.00;;
9473;SDS011;8865;47.636;7.692;2022-12-18T04:09:53;8.67;;;5.33;;
9473;SDS011;8865;47.636;7.692;2022-12-18T04:12:24;7.67;;;5.73;;
9473;SDS011;8865;47.636;7.692;2022-12-18T04:14:51;8.23;;;5.63;;
9473;SDS011;8865;47.636;7.692;2022-12-18T04:17:18;9.53;;;5.77;;
9473;SDS011;8865;47.636;7.692;2022-12-18T04:19:44;6.70;;;5.30;;
9473;SDS011;8865;47.636;7.692;2022-12-18T04:22:10;8.17;;;5.27;;
9473;SDS011;8865;47.636;7.692;2022-12-18T04:24:36;9.43;;;5.87;;
9473;SDS011;8865;47.636;7.692;2022-12-18T04:27:02;8.47;;;5.43;;
9473;SDS011;8865;47.636;7.692;2022-12-18T04:29:29;6.97;;;4.80;;
9473;SDS011;8865;47.636;7.692;2022-12-18T04:31:55;7.33;;;5.27;;
9473;SDS011;8865;47.636;7.692;2022-12-18T04:34:21;10.27;;;5.53;;
9473;SDS011;8865;47.636;7.692;2022-12-18T04:36:47;9.07;;;5.57;;
9473;SDS011;8865;47.636;7.692;2022-12-18T04:39:13;8.63;;;5.60;;
9473;SDS011;8865;47.636;7.692;2022-12-18T04:41:40;8.97;;;5.40;;
9473;SDS011;8865;47.636;7.692;2022-12-18T04:44:06;8.53;;;4.77;;
9473;SDS011;8865;47.636;7.692;2022-12-18T04:46:32;8.20;;;5.00;;
9473;SDS011;8865;47.636;7.692;2022-12-18T04:48:58;7.97;;;5.33;;
9473;SDS011;8865;47.636;7.692;2022-12-18T04:51:24;8.97;;;5.70;;
9473;SDS011;8865;47.636;7.692;2022-12-18T04:53:50;8.80;;;5.47;;
9473;SDS011;8865;47.636;7.692;2022-12-18T04:56:16;8.37;;;5.53;;
9473;SDS011;8865;47.636;7.692;2022-12-18T04:58:43;8.23;;;5.43;;
9473;SDS011;8865;47.636;7.692;2022-12-18T05:01:10;8.63;;;5.00;;
9473;SDS011;8865;47.636;7.692;2022-12-18T05:03:37;7.57;;;4.97;;
9473;SDS011;8865;47.636;7.692;2022-12-18T05:06:03;7.60;;;5.37;;
9473;SDS011;8865;47.636;7.692;2022-12-18T05:08:30;7.63;;;5.10;;
9473;SDS011;8865;47.636;7.692;2022-12-18T05:11:00;7.50;;;4.90;;
9473;SDS011;8865;47.636;7.692;2022-12-18T05:13:29;9.60;;;5.17;;
9473;SDS011;8865;47.636;7.692;2022-12-18T05:15:55;7.37;;;5.00;;
9473;SDS011;8865;47.636;7.692;2022-12-18T05:18:24;5.93;;;4.30;;
9473;SDS011;8865;47.636;7.692;2022-12-18T05:20:51;8.07;;;4.83;;
9473;SDS011;8865;47.636;7.692;2022-12-18T05:23:18;7.40;;;4.77;;
9473;SDS011;8865;47.636;7.692;2022-12-18T05:25:58;6.80;;;4.80;;
9473;SDS011;8865;47.636;7.692;2022-12-18T05:28:26;6.70;;;4.93;;
9473;SDS011;8865;47.636;7.692;2022-12-18T05:30:54;8.73;;;5.30;;
9473;SDS011;8865;47.636;7.692;2022-12-18T05:33:22;7.97;;;5.30;;
9473;SDS011;8865;47.636;7.692;2022-12-18T05:35:50;6.63;;;4.70;;
9473;SDS011;8865;47.636;7.692;2022-12-18T05:38:21;7.90;;;5.00;;
9473;SDS011;8865;47.636;7.692;2022-12-18T05:40:47;7.97;;;5.20;;
9473;SDS011;8865;47.636;7.692;2022-12-18T05:43:14;8.20;;;5.07;;
9473;SDS011;8865;47.636;7.692;2022-12-18T05:45:40;7.80;;;6.47;;
9473;SDS011;8865;47.636;7.692;2022-12-18T05:48:07;9.97;;;7.07;;
9473;SDS011;8865;47.636;7.692;2022-12-18T05:50:34;8.87;;;6.00;;
9473;SDS011;8865;47.636;7.692;2022-12-18T05:53:04;7.23;;;4.83;;
9473;SDS011;8865;47.636;7.692;2022-12-18T05:55:37;6.67;;;4.53;;
9473;SDS011;8865;47.636;7.692;2022-12-18T05:58:05;7.50;;;4.53;;
9473;SDS011;8865;47.636;7.692;2022-12-18T06:00:32;6.10;;;4.33;;
9473;SDS011;8865;47.636;7.692;2022-12-18T06:03:00;7.70;;;4.80;;
9473;SDS011;8865;47.636;7.692;2022-12-18T06:05:26;7.50;;;4.70;;
9473;SDS011;8865;47.636;7.692;2022-12-18T06:07:52;8.77;;;5.40;;
9473;SDS011;8865;47.636;7.692;2022-12-18T06:10:18;8.13;;;5.13;;
9473;SDS011;8865;47.636;7.692;2022-12-18T06:12:45;8.03;;;4.83;;
9473;SDS011;8865;47.636;7.692;2022-12-18T06:15:11;7.53;;;4.57;;
9473;SDS011;8865;47.636;7.692;2022-12-18T06:17:36;7.30;;;4.70;;
9473;SDS011;8865;47.636;7.692;2022-12-18T06:20:03;8.50;;;5.43;;
9473;SDS011;8865;47.636;7.692;2022-12-18T06:22:30;7.33;;;4.70;;
9473;SDS011;8865;47.636;7.692;2022-12-18T06:24:57;7.27;;;5.07;;
9473;SDS011;8865;47.636;7.692;2022-12-18T06:27:24;6.87;;;5.00;;
9473;SDS011;8865;47.636;7.692;2022-12-18T06:29:50;7.27;;;4.80;;
9473;SDS011;8865;47.636;7.692;2022-12-18T06:32:17;8.10;;;4.93;;
9473;SDS011;8865;47.636;7.692;2022-12-18T06:34:42;7.67;;;4.80;;
9473;SDS011;8865;47.636;7.692;2022-12-18T06:37:08;7.13;;;5.07;;
9473;SDS011;8865;47.636;7.692;2022-12-18T06:39:34;7.13;;;4.70;;
9473;SDS011;8865;47.636;7.692;2022-12-18T06:42:00;6.77;;;4.63;;
9473;SDS011;8865;47.636;7.692;2022-12-18T06:44:27;10.10;;;6.00;;
9473;SDS011;8865;47.636;7.692;2022-12-18T06:46:53;10.10;;;6.00;;
9473;SDS011;8865;47.636;7.692;2022-12-18T06:49:19;7.23;;;5.27;;
9473;SDS011;8865;47.636;7.692;2022-12-18T06:51:45;7.40;;;4.47;;
9473;SDS011;8865;47.636;7.692;2022-12-18T06:54:11;6.87;;;4.47;;
9473;SDS011;8865;47.636;7.692;2022-12-18T06:56:37;9.13;;;5.20;;
9473;SDS011;8865;47.636;7.692;2022-12-18T06:59:03;6.90;;;5.20;;
9473;SDS011;8865;47.636;7.692;2022-12-18T07:01:29;7.43;;;5.10;;
9473;SDS011;8865;47.636;7.692;2022-12-18T07:03:55;9.87;;;5.07;;
9473;SDS011;8865;47.636;7.692;2022-12-18T07:06:23;7.83;;;5.13;;
9473;SDS011;8865;47.636;7.692;2022-12-18T07:08:50;7.47;;;5.20;;
9473;SDS011;8865;47.636;7.692;2022-12-18T07:11:17;7.90;;;5.30;;
9473;SDS011;8865;47.636;7.692;2022-12-18T07:13:44;6.60;;;4.70;;
9473;SDS011;8865;47.636;7.692;2022-12-18T07:16:12;9.30;;;5.20;;
9473;SDS011;8865;47.636;7.692;2022-12-18T07:18:43;7.20;;;5.27;;
9473;SDS011;8865;47.636;7.692;2022-12-18T07:21:11;8.53;;;5.63;;
9473;SDS011;8865;47.636;7.692;2022-12-18T07:23:41;8.10;;;5.77;;
9473;SDS011;8865;47.636;7.692;2022-12-18T07:26:08;8.13;;;5.00;;
9473;SDS011;8865;47.636;7.692;2022-12-18T07:28:38;8.30;;;5.07;;
9473;SDS011;8865;47.636;7.692;2022-12-18T07:31:12;7.00;;;4.93;;
9473;SDS011;8865;47.636;7.692;2022-12-18T07:33:49;7.87;;;4.80;;
9473;SDS011;8865;47.636;7.692;2022-12-18T07:36:15;6.60;;;4.37;;
9473;SDS011;8865;47.636;7.692;2022-12-18T07:38:41;5.50;;;3.83;;
9473;SDS011;8865;47.636;7.692;2022-12-18T07:41:10;6.70;;;4.70;;
9473;SDS011;8865;47.636;7.692;2022-12-18T07:43:37;7.67;;;4.40;;
9473;SDS011;8865;47.636;7.692;2022-12-18T07:46:04;6.27;;;4.60;;
9473;SDS011;8865;47.636;7.692;2022-12-18T07:48:30;6.63;;;4.80;;
9473;SDS011;8865;47.636;7.692;2022-12-18T07:51:03;7.80;;;5.10;;
9473;SDS011;8865;47.636;7.692;2022-12-18T07:53:31;7.40;;;5.07;;
9473;SDS011;8865;47.636;7.692;2022-12-18T07:55:58;8.43;;;5.70;;
9473;SDS011;8865;47.636;7.692;2022-12-18T07:58:26;8.70;;;5.57;;
9473;SDS011;8865;47.636;7.692;2022-12-18T08:00:52;7.13;;;4.40;;
9473;SDS011;8865;47.636;7.692;2022-12-18T08:03:18;7.27;;;4.80;;
9473;SDS011;8865;47.636;7.692;2022-12-18T08:05:45;7.33;;;5.10;;
9473;SDS011;8865;47.636;7.692;2022-12-18T08:08:11;8.73;;;5.53;;
9473;SDS011;8865;47.636;7.692;2022-12-18T08:10:37;8.43;;;5.97;;
9473;SDS011;8865;47.636;7.692;2022-12-18T08:13:04;8.83;;;5.90;;
9473;SDS011;8865;47.636;7.692;2022-12-18T08:15:30;7.43;;;5.40;;
9473;SDS011;8865;47.636;7.692;2022-12-18T08:17:56;10.07;;;6.43;;
9473;SDS011;8865;47.636;7.692;2022-12-18T08:20:22;9.23;;;6.23;;
9473;SDS011;8865;47.636;7.692;2022-12-18T08:22:48;9.17;;;6.07;;
9473;SDS011;8865;47.636;7.692;2022-12-18T08:25:15;8.90;;;5.93;;
9473;SDS011;8865;47.636;7.692;2022-12-18T08:27:41;9.00;;;6.07;;
9473;SDS011;8865;47.636;7.692;2022-12-18T08:30:07;9.00;;;6.00;;
9473;SDS011;8865;47.636;7.692;2022-12-18T08:32:33;8.87;;;6.23;;
9473;SDS011;8865;47.636;7.692;2022-12-18T08:34:59;8.23;;;6.30;;
9473;SDS011;8865;47.636;7.692;2022-12-18T08:37:25;8.23;;;5.63;;
9473;SDS011;8865;47.636;7.692;2022-12-18T08:39:51;8.23;;;5.73;;
9473;SDS011;8865;47.636;7.692;2022-12-18T08:42:17;8.10;;;5.90;;
9473;SDS011;8865;47.636;7.692;2022-12-18T08:45:02;8.13;;;5.80;;
9473;SDS011;8865;47.636;7.692;2022-12-18T08:47:29;8.93;;;6.20;;
9473;SDS011;8865;47.636;7.692;2022-12-18T08:49:55;9.30;;;6.40;;
9473;SDS011;8865;47.636;7.692;2022-12-18T08:52:21;8.20;;;6.20;;
9473;SDS011;8865;47.636;7.692;2022-12-18T08:54:47;10.10;;;6.37;;
9473;SDS011;8865;47.636;7.692;2022-12-18T08:57:13;8.63;;;6.00;;
9473;SDS011;8865;47.636;7.692;2022-12-18T08:59:39;9.27;;;6.23;;
9473;SDS011;8865;47.636;7.692;2022-12-18T09:02:05;7.80;;;5.43;;
9473;SDS011;8865;47.636;7.692;2022-12-18T09:04:31;8.40;;;5.80;;
9473;SDS011;8865;47.636;7.692;2022-12-18T09:06:57;13.67;;;9.43;;
9473;SDS011;8865;47.636;7.692;2022-12-18T09:09:23;12.47;;;7.80;;
9473;SDS011;8865;47.636;7.692;2022-12-18T09:11:49;9.27;;;5.93;;
9473;SDS011;8865;47.636;7.692;2022-12-18T09:14:15;9.30;;;6.40;;
9473;SDS011;8865;47.636;7.692;2022-12-18T09:16:41;10.17;;;7.27;;
9473;SDS011;8865;47.636;7.692;2022-12-18T09:19:07;11.43;;;7.13;;
9473;SDS011;8865;47.636;7.692;2022-12-18T09:21:34;10.60;;;6.90;;
9473;SDS011;8865;47.636;7.692;2022-12-18T09:24:04;9.60;;;6.93;;
9473;SDS011;8865;47.636;7.692;2022-12-18T09:26:31;9.63;;;7.13;;
9473;SDS011;8865;47.636;7.692;2022-12-18T09:28:57;11.27;;;7.80;;
9473;SDS011;8865;47.636;7.692;2022-12-18T09:31:23;9.90;;;7.20;;
9473;SDS011;8865;47.636;7.692;2022-12-18T09:33:50;12.67;;;8.23;;
9473;SDS011;8865;47.636;7.692;2022-12-18T09:36:17;13.17;;;8.87;;
9473;SDS011;8865;47.636;7.692;2022-12-18T09:38:44;10.90;;;7.53;;
9473;SDS011;8865;47.636;7.692;2022-12-18T09:44:04;11.50;;;8.07;;
9473;SDS011;8865;47.636;7.692;2022-12-18T09:46:50;11.67;;;8.23;;
9473;SDS011;8865;47.636;7.692;2022-12-18T09:49:47;10.90;;;7.83;;
9473;SDS011;8865;47.636;7.692;2022-12-18T09:52:19;11.57;;;7.80;;
9473;SDS011;8865;47.636;7.692;2022-12-18T09:57:45;10.30;;;8.13;;
9473;SDS011;8865;47.636;7.692;2022-12-18T10:00:18;10.03;;;8.03;;
9473;SDS011;8865;47.636;7.692;2022-12-18T10:02:46;11.10;;;8.77;;
9473;SDS011;8865;47.636;7.692;2022-12-18T10:05:17;13.40;;;9.33;;
9473;SDS011;8865;47.636;7.692;2022-12-18T10:11:01;10.90;;;8.80;;
9473;SDS011;8865;47.636;7.692;2022-12-18T10:13:57;11.73;;;9.40;;
9473;SDS011;8865;47.636;7.692;2022-12-18T10:16:38;12.43;;;10.20;;
9473;SDS011;8865;47.636;7.692;2022-12-18T10:19:23;13.90;;;10.57;;
9473;SDS011;8865;47.636;7.692;2022-12-18T10:27:21;12.47;;;10.43;;
9473;SDS011;8865;47.636;7.692;2022-12-18T10:29:51;13.40;;;11.53;;
9473;SDS011;8865;47.636;7.692;2022-12-18T10:32:19;13.77;;;11.67;;
9473;SDS011;8865;47.636;7.692;2022-12-18T10:34:48;13.37;;;11.60;;
9473;SDS011;8865;47.636;7.692;2022-12-18T10:37:16;13.93;;;12.43;;
9473;SDS011;8865;47.636;7.692;2022-12-18T10:39:46;15.13;;;12.13;;
9473;SDS011;8865;47.636;7.692;2022-12-18T10:42:29;13.07;;;11.63;;
9473;SDS011;8865;47.636;7.692;2022-12-18T10:45:00;14.13;;;12.30;;
9473;SDS011;8865;47.636;7.692;2022-12-18T10:47:59;16.03;;;14.10;;
9473;SDS011;8865;47.636;7.692;2022-12-18T10:53:03;15.17;;;12.93;;
9473;SDS011;8865;47.636;7.692;2022-12-18T10:55:37;14.57;;;13.07;;
9473;SDS011;8865;47.636;7.692;2022-12-18T11:03:32;16.67;;;14.17;;
9473;SDS011;8865;47.636;7.692;2022-12-18T11:08:30;18.13;;;15.03;;
9473;SDS011;8865;47.636;7.692;2022-12-18T11:10:56;17.67;;;15.10;;
9473;SDS011;8865;47.636;7.692;2022-12-18T11:13:23;18.23;;;15.93;;
9473;SDS011;8865;47.636;7.692;2022-12-18T11:15:51;18.60;;;15.60;;
9473;SDS011;8865;47.636;7.692;2022-12-18T11:18:19;18.17;;;15.10;;
9473;SDS011;8865;47.636;7.692;2022-12-18T11:20:50;19.20;;;15.67;;
9473;SDS011;8865;47.636;7.692;2022-12-18T11:23:19;18.70;;;16.10;;
9473;SDS011;8865;47.636;7.692;2022-12-18T11:26:00;19.77;;;16.67;;
9473;SDS011;8865;47.636;7.692;2022-12-18T11:31:11;20.77;;;16.73;;
9473;SDS011;8865;47.636;7.692;2022-12-18T11:33:38;20.30;;;16.17;;
9473;SDS011;8865;47.636;7.692;2022-12-18T11:36:07;19.30;;;15.73;;
9473;SDS011;8865;47.636;7.692;2022-12-18T11:38:35;22.10;;;17.47;;
9473;SDS011;8865;47.636;7.692;2022-12-18T11:44:11;20.07;;;15.63;;
9473;SDS011;8865;47.636;7.692;2022-12-18T11:46:49;18.97;;;15.80;;
9473;SDS011;8865;47.636;7.692;2022-12-18T11:49:42;20.87;;;16.63;;
9473;SDS011;8865;47.636;7.692;2022-12-18T11:52:14;20.40;;;16.60;;
9473;SDS011;8865;47.636;7.692;2022-12-18T11:54:45;20.30;;;15.83;;
9473;SDS011;8865;47.636;7.692;2022-12-18T11:59:52;20.37;;;16.50;;
9473;SDS011;8865;47.636;7.692;2022-12-18T12:02:42;18.37;;;15.90;;
9473;SDS011;8865;47.636;7.692;2022-12-18T12:11:18;20.33;;;17.10;;
9473;SDS011;8865;47.636;7.692;2022-12-18T12:16:25;20.10;;;16.60;;
9473;SDS011;8865;47.636;7.692;2022-12-18T12:19:10;19.80;;;16.10;;
9473;SDS011;8865;47.636;7.692;2022-12-18T12:35:48;19.60;;;15.10;;
9473;SDS011;8865;47.636;7.692;2022-12-18T12:40:59;21.43;;;15.83;;
9473;SDS011;8865;47.636;7.692;2022-12-18T12:43:39;19.13;;;14.83;;
9473;SDS011;8865;47.636;7.692;2022-12-18T12:46:09;19.87;;;16.07;;
9473;SDS011;8865;47.636;7.692;2022-12-18T12:48:44;19.77;;;15.13;;
9473;SDS011;8865;47.636;7.692;2022-12-18T12:51:23;20.87;;;15.60;;
9473;SDS011;8865;47.636;7.692;2022-12-18T12:53:52;19.83;;;15.00;;
9473;SDS011;8865;47.636;7.692;2022-12-18T12:56:20;21.63;;;15.37;;
9473;SDS011;8865;47.636;7.692;2022-12-18T13:06:57;21.40;;;15.87;;
9473;SDS011;8865;47.636;7.692;2022-12-18T13:09:30;21.07;;;14.93;;
9473;SDS011;8865;47.636;7.692;2022-12-18T13:12:01;21.57;;;15.40;;
9473;SDS011;8865;47.636;7.692;2022-12-18T13:14:48;22.53;;;17.00;;
9473;SDS011;8865;47.636;7.692;2022-12-18T13:20:08;25.80;;;17.70;;
9473;SDS011;8865;47.636;7.692;2022-12-18T13:22:35;22.20;;;16.23;;
9473;SDS011;8865;47.636;7.692;2022-12-18T13:27:57;20.70;;;15.20;;
9473;SDS011;8865;47.636;7.692;2022-12-18T13:38:22;22.17;;;16.03;;
9473;SDS011;8865;47.636;7.692;2022-12-18T13:48:58;22.37;;;15.80;;
9473;SDS011;8865;47.636;7.692;2022-12-18T13:51:27;21.17;;;15.53;;
9473;SDS011;8865;47.636;7.692;2022-12-18T13:56:32;23.27;;;15.20;;
9473;SDS011;8865;47.636;7.692;2022-12-18T13:59:13;22.80;;;15.93;;
9473;SDS011;8865;47.636;7.692;2022-12-18T14:01:51;23.40;;;16.17;;
9473;SDS011;8865;47.636;7.692;2022-12-18T14:04:23;23.93;;;16.43;;
9473;SDS011;8865;47.636;7.692;2022-12-18T14:06:51;23.47;;;16.20;;
9473;SDS011;8865;47.636;7.692;2022-12-18T14:09:24;22.73;;;16.03;;
9473;SDS011;8865;47.636;7.692;2022-12-18T14:11:52;24.37;;;15.70;;
9473;SDS011;8865;47.636;7.692;2022-12-18T14:14:46;22.97;;;16.03;;
9473;SDS011;8865;47.636;7.692;2022-12-18T14:17:16;23.23;;;15.53;;
9473;SDS011;8865;47.636;7.692;2022-12-18T14:19:47;21.90;;;15.73;;
9473;SDS011;8865;47.636;7.692;2022-12-18T14:22:16;24.50;;;16.80;;
9473;SDS011;8865;47.636;7.692;2022-12-18T14:24:47;21.73;;;15.93;;
9473;SDS011;8865;47.636;7.692;2022-12-18T14:27:29;24.80;;;16.10;;
9473;SDS011;8865;47.636;7.692;2022-12-18T14:29:55;23.57;;;16.10;;
9473;SDS011;8865;47.636;7.692;2022-12-18T14:32:21;21.20;;;15.20;;
9473;SDS011;8865;47.636;7.692;2022-12-18T14:34:49;21.67;;;15.03;;
9473;SDS011;8865;47.636;7.692;2022-12-18T14:37:18;22.53;;;15.67;;
9473;SDS011;8865;47.636;7.692;2022-12-18T14:39:56;21.17;;;14.53;;
9473;SDS011;8865;47.636;7.692;2022-12-18T14:42:23;22.20;;;15.03;;
9473;SDS011;8865;47.636;7.692;2022-12-18T14:47:57;21.53;;;15.13;;
9473;SDS011;8865;47.636;7.692;2022-12-18T14:50:24;22.00;;;15.47;;
9473;SDS011;8865;47.636;7.692;2022-12-18T14:52:51;21.13;;;14.43;;
9473;SDS011;8865;47.636;7.692;2022-12-18T14:55:18;23.03;;;15.53;;
9473;SDS011;8865;47.636;7.692;2022-12-18T14:57:49;25.33;;;16.00;;
9473;SDS011;8865;47.636;7.692;2022-12-18T15:00:21;23.87;;;16.17;;
9473;SDS011;8865;47.636;7.692;2022-12-18T15:02:50;22.97;;;15.03;;
9473;SDS011;8865;47.636;7.692;2022-12-18T15:05:28;24.20;;;15.57;;
9473;SDS011;8865;47.636;7.692;2022-12-18T15:07:56;26.30;;;16.37;;
9473;SDS011;8865;47.636;7.692;2022-12-18T15:17:59;23.10;;;15.67;;
9473;SDS011;8865;47.636;7.692;2022-12-18T15:20:26;22.13;;;15.37;;
9473;SDS011;8865;47.636;7.692;2022-12-18T15:22:52;23.70;;;16.07;;
9473;SDS011;8865;47.636;7.692;2022-12-18T15:25:36;23.07;;;15.23;;
9473;SDS011;8865;47.636;7.692;2022-12-18T15:28:04;25.07;;;15.50;;
9473;SDS011;8865;47.636;7.692;2022-12-18T15:31:00;23.77;;;14.90;;
9473;SDS011;8865;47.636;7.692;2022-12-18T15:33:33;24.90;;;15.57;;
9473;SDS011;8865;47.636;7.692;2022-12-18T15:36:05;23.77;;;15.63;;
9473;SDS011;8865;47.636;7.692;2022-12-18T15:38:35;24.37;;;16.03;;
9473;SDS011;8865;47.636;7.692;2022-12-18T15:41:01;25.70;;;15.53;;
9473;SDS011;8865;47.636;7.692;2022-12-18T15:43:28;24.63;;;15.80;;
9473;SDS011;8865;47.636;7.692;2022-12-18T15:46:01;23.63;;;14.70;;
9473;SDS011;8865;47.636;7.692;2022-12-18T15:48:28;21.60;;;14.93;;
9473;SDS011;8865;47.636;7.692;2022-12-18T15:50:55;24.57;;;15.87;;
9473;SDS011;8865;47.636;7.692;2022-12-18T15:53:23;25.20;;;15.93;;
9473;SDS011;8865;47.636;7.692;2022-12-18T15:55:50;25.57;;;16.37;;
9473;SDS011;8865;47.636;7.692;2022-12-18T15:58:34;28.67;;;19.03;;
9473;SDS011;8865;47.636;7.692;2022-12-18T16:01:00;26.70;;;18.13;;
9473;SDS011;8865;47.636;7.692;2022-12-18T16:03:27;27.30;;;17.13;;
9473;SDS011;8865;47.636;7.692;2022-12-18T16:05:53;23.90;;;15.77;;
9473;SDS011;8865;47.636;7.692;2022-12-18T16:08:19;23.00;;;15.83;;
9473;SDS011;8865;47.636;7.692;2022-12-18T16:10:45;22.67;;;15.37;;
9473;SDS011;8865;47.636;7.692;2022-12-18T16:13:11;24.53;;;16.77;;
9473;SDS011;8865;47.636;7.692;2022-12-18T16:15:40;28.47;;;17.90;;
9473;SDS011;8865;47.636;7.692;2022-12-18T16:18:06;22.97;;;15.80;;
9473;SDS011;8865;47.636;7.692;2022-12-18T16:20:32;24.90;;;17.80;;
9473;SDS011;8865;47.636;7.692;2022-12-18T16:22:59;27.73;;;17.53;;
9473;SDS011;8865;47.636;7.692;2022-12-18T16:25:26;39.50;;;26.13;;
9473;SDS011;8865;47.636;7.692;2022-12-18T16:27:54;28.00;;;18.83;;
9473;SDS011;8865;47.636;7.692;2022-12-18T16:30:22;25.97;;;17.63;;
9473;SDS011;8865;47.636;7.692;2022-12-18T16:32:49;29.80;;;20.43;;
9473;SDS011;8865;47.636;7.692;2022-12-18T16:35:15;27.77;;;17.40;;
9473;SDS011;8865;47.636;7.692;2022-12-18T16:37:42;24.67;;;17.20;;
9473;SDS011;8865;47.636;7.692;2022-12-18T16:40:10;26.43;;;18.23;;
9473;SDS011;8865;47.636;7.692;2022-12-18T16:42:39;27.57;;;18.27;;
9473;SDS011;8865;47.636;7.692;2022-12-18T16:45:07;26.10;;;17.90;;
9473;SDS011;8865;47.636;7.692;2022-12-18T16:47:36;25.23;;;17.67;;
9473;SDS011;8865;47.636;7.692;2022-12-18T16:50:03;25.00;;;16.93;;
9473;SDS011;8865;47.636;7.692;2022-12-18T16:52:29;26.50;;;17.13;;
9473;SDS011;8865;47.636;7.692;2022-12-18T16:55:05;26.30;;;17.50;;
9473;SDS011;8865;47.636;7.692;2022-12-18T16:57:31;24.97;;;17.80;;
9473;SDS011;8865;47.636;7.692;2022-12-18T16:59:57;27.13;;;16.70;;
9473;SDS011;8865;47.636;7.692;2022-12-18T17:02:24;28.97;;;17.40;;
9473;SDS011;8865;47.636;7.692;2022-12-18T17:04:55;25.10;;;17.07;;
9473;SDS011;8865;47.636;7.692;2022-12-18T17:07:22;28.10;;;17.13;;
9473;SDS011;8865;47.636;7.692;2022-12-18T17:09:49;26.57;;;17.57;;
9473;SDS011;8865;47.636;7.692;2022-12-18T17:12:16;25.43;;;17.00;;
9473;SDS011;8865;47.636;7.692;2022-12-18T17:14:42;27.47;;;17.50;;
9473;SDS011;8865;47.636;7.692;2022-12-18T17:17:08;26.63;;;17.07;;
9473;SDS011;8865;47.636;7.692;2022-12-18T17:19:34;27.13;;;17.60;;
9473;SDS011;8865;47.636;7.692;2022-12-18T17:22:00;24.77;;;16.57;;
9473;SDS011;8865;47.636;7.692;2022-12-18T17:24:26;28.07;;;18.50;;
9473;SDS011;8865;47.636;7.692;2022-12-18T17:26:52;26.33;;;17.53;;
9473;SDS011;8865;47.636;7.692;2022-12-18T17:29:18;28.03;;;19.87;;